Time;durP1;ratioP1;P1;durP2;ratioP2;P2;SDS_P1;SDS_P2;PMS_P1;PMS_P2;Temp;Humidity;BMP_temperature;BMP_pressure;BME280_temperature;BME280_humidity;BME280_pressure;Samples;Min_cycle;Max_cycle;Signal;HPM_P1;HPM_P2
2022/03/10 00:01:49;;;;;;;24.47;11.88;;;;;;;10.35;48.70;100116.13;4361720;80;28497;-76
2022/03/10 00:07:51;;;;;;;26.48;12.30;;;;;;;10.36;48.18;100121.80;4347798;80;28527;-74
2022/03/10 00:13:53;;;;;;;28.42;12.73;;;;;;;9.85;49.17;100123.40;4364597;80;28529;-78
2022/03/10 00:19:54;;;;;;;26.23;12.35;;;;;;;10.96;46.53;100118.41;4354798;80;28495;-81
2022/03/10 00:25:55;;;;;;;24.15;11.50;;;;;;;9.95;48.68;100139.16;4360362;80;28521;-83
2022/03/10 00:31:57;;;;;;;25.02;12.33;;;;;;;9.62;48.89;100137.95;4362835;80;28510;-84
2022/03/10 00:37:59;;;;;;;24.75;10.50;;;;;;;9.23;50.52;100143.89;4360855;80;28679;-82
2022/03/10 00:44:01;;;;;;;24.25;10.82;;;;;;;8.41;53.25;100148.17;4300951;81;28637;-85
2022/03/10 00:50:05;;;;;;;22.10;10.48;;;;;;;8.81;52.11;100156.65;4264787;82;28533;-87
2022/03/10 00:56:06;;;;;;;21.25;9.88;;;;;;;8.96;50.84;100155.23;4316835;81;28475;-87
2022/03/10 01:02:08;;;;;;;23.45;11.73;;;;;;;9.40;49.54;100161.88;4336887;81;28495;-87
2022/03/10 01:08:09;;;;;;;23.70;11.18;;;;;;;8.88;51.54;100166.91;4335579;81;28532;-86
2022/03/10 01:14:11;;;;;;;20.17;9.60;;;;;;;8.83;51.31;100165.83;4334558;81;28545;-86
2022/03/10 01:20:13;;;;;;;18.07;9.25;;;;;;;8.60;50.84;100170.37;4342425;81;28527;-87
2022/03/10 01:26:14;;;;;;;17.50;9.05;;;;;;;8.29;48.90;100166.58;4336517;82;28538;-84
2022/03/10 01:32:16;;;;;;;15.83;8.13;;;;;;;8.11;49.60;100169.66;4335865;81;28472;-83
2022/03/10 01:38:18;;;;;;;14.87;7.33;;;;;;;9.94;43.96;100167.03;4333697;79;29215;-83
2022/03/10 01:44:21;;;;;;;13.53;7.22;;;;;;;9.85;44.30;100171.74;4409127;81;28532;-82
2022/03/10 01:50:22;;;;;;;13.95;7.12;;;;;;;8.62;45.79;100179.05;4409565;81;43921;-82
2022/03/10 01:56:24;;;;;;;16.35;7.65;;;;;;;9.07;44.83;100172.65;4397751;80;28505;-83
2022/03/10 02:02:26;;;;;;;18.85;8.28;;;;;;;8.80;45.65;100192.53;4409259;80;28559;-81
2022/03/10 02:21:07;;;;;;;20.45;8.60;;;;;;;8.59;46.40;100191.50;4404375;80;43895;-82
2022/03/10 02:27:16;;;;;;;15.25;7.58;;;;;;;10.07;43.30;100203.08;4391276;81;43948;-84
2022/03/10 02:33:18;;;;;;;13.60;7.42;;;;;;;9.94;42.61;100205.17;4399521;80;28493;-83
2022/03/10 02:39:19;;;;;;;16.67;8.85;;;;;;;8.26;46.01;100221.36;4406166;80;43918;-84
2022/03/10 02:45:22;;;;;;;15.90;8.25;;;;;;;8.68;45.87;100220.84;4400970;79;28542;-84
2022/03/10 02:51:23;;;;;;;17.77;9.00;;;;;;;8.08;47.80;100234.65;4410369;80;28495;-84
2022/03/10 02:57:27;;;;;;;14.50;6.95;;;;;;;8.26;47.90;100239.30;4443851;78;28537;-83
2022/03/10 03:03:28;;;;;;;14.50;7.20;;;;;;;8.53;45.43;100253.89;4367942;80;28517;-86
2022/03/10 03:09:29;;;;;;;13.85;7.05;;;;;;;7.82;46.68;100267.23;4455323;79;43917;-86
2022/03/10 03:15:31;;;;;;;14.30;7.10;;;;;;;7.97;47.09;100281.14;4385142;81;28531;-81
2022/03/10 03:21:32;;;;;;;13.35;6.85;;;;;;;7.99;47.36;100298.69;4383739;81;43945;-81
2022/03/10 03:27:34;;;;;;;12.00;5.83;;;;;;;8.15;46.93;100302.20;4365810;80;43241;-84
2022/03/10 03:33:36;;;;;;;9.18;4.85;;;;;;;7.64;47.48;100314.39;4378822;81;42676;-82
2022/03/10 03:39:38;;;;;;;11.35;5.25;;;;;;;7.08;48.60;100319.48;4389656;80;43317;-82
2022/03/10 03:45:39;;;;;;;11.20;5.72;;;;;;;7.81;46.63;100319.94;4389566;80;43223;-83
2022/03/10 03:51:41;;;;;;;10.08;5.50;;;;;;;7.74;46.98;100323.53;4428894;80;43293;-82
2022/03/10 03:57:42;;;;;;;11.80;6.03;;;;;;;7.44;47.85;100334.13;4445996;79;43272;-84
2022/03/10 04:03:43;;;;;;;9.33;5.12;;;;;;;7.61;46.31;100355.76;4337145;82;42708;-85
2022/03/10 04:09:45;;;;;;;10.28;5.22;;;;;;;7.60;46.60;100362.13;4338176;82;43236;-84
2022/03/10 04:15:46;;;;;;;10.28;4.87;;;;;;;7.70;46.16;100365.04;4339971;81;43265;-85
2022/03/10 04:21:47;;;;;;;13.10;5.70;;;;;;;7.74;45.92;100381.09;4328927;82;43254;-85
2022/03/10 04:27:50;;;;;;;11.28;4.92;;;;;;;7.53;46.20;100391.94;4433941;78;43235;-84
2022/03/10 04:33:52;;;;;;;10.05;4.80;;;;;;;6.80;47.17;100396.99;4329885;81;43377;-84
2022/03/10 04:39:53;;;;;;;13.20;6.15;;;;;;;7.00;46.41;100400.59;4324749;81;43274;-86
2022/03/10 04:45:54;;;;;;;11.97;5.65;;;;;;;7.33;45.90;100407.60;4342668;80;43307;-83
2022/03/10 04:51:57;;;;;;;12.25;5.33;;;;;;;6.93;46.54;100424.52;4325367;80;43208;-85
2022/03/10 04:57:58;;;;;;;12.30;5.45;;;;;;;6.72;46.76;100423.75;4320548;82;43248;-84
2022/03/10 05:04:00;;;;;;;11.45;5.40;;;;;;;6.72;46.53;100438.45;4439297;80;43282;-83
2022/03/10 05:10:02;;;;;;;11.38;5.30;;;;;;;5.93;47.89;100446.49;4426467;78;43274;-82
2022/03/10 05:16:04;;;;;;;11.20;5.70;;;;;;;5.80;48.43;100448.34;4350892;80;43286;-82
2022/03/10 05:22:06;;;;;;;9.33;5.42;;;;;;;5.42;49.94;100458.11;4346943;82;42755;-83
2022/03/10 05:28:16;;;;;;;10.88;5.35;;;;;;;5.62;49.41;100464.46;4346463;82;43248;-84
2022/03/10 05:34:17;;;;;;;14.53;5.12;;;;;;;5.79;48.35;100473.36;4338021;82;43645;-84
2022/03/10 05:40:21;;;;;;;13.62;5.30;;;;;;;5.69;48.39;100491.36;4350549;80;43243;-81
2022/03/10 05:46:22;;;;;;;10.05;4.50;;;;;;;5.83;48.06;100496.05;4357598;80;43271;-84
2022/03/10 05:52:23;;;;;;;10.48;4.95;;;;;;;4.99;48.35;100532.73;4367156;81;43200;-83
2022/03/10 05:58:25;;;;;;;11.53;5.33;;;;;;;5.41;45.78;100510.27;4358200;81;43200;-84
2022/03/10 06:04:26;;;;;;;12.03;4.42;;;;;;;5.58;44.76;100519.16;4364799;81;43272;-85
2022/03/10 06:10:28;;;;;;;8.73;4.17;;;;;;;5.23;44.95;100525.03;4356149;80;42801;-87
2022/03/10 06:16:30;;;;;;;8.23;3.67;;;;;;;4.82;44.68;100549.60;4346189;81;42748;-82
2022/03/10 06:22:32;;;;;;;9.23;4.30;;;;;;;5.00;43.41;100569.56;4354557;81;42684;-79
2022/03/10 06:28:34;;;;;;;8.73;3.92;;;;;;;5.36;42.96;100565.42;4355370;80;43346;-80
2022/03/10 06:34:40;;;;;;;7.65;3.65;;;;;;;5.51;42.12;100574.16;4370167;81;42737;-82
2022/03/10 06:40:41;;;;;;;7.00;3.65;;;;;;;5.34;41.34;100584.76;4340240;80;42569;-81
2022/03/10 06:46:43;;;;;;;6.70;4.03;;;;;;;5.89;40.52;100581.83;4349139;81;42557;-80
2022/03/10 06:52:44;;;;;;;7.55;4.08;;;;;;;5.09;40.49;100614.44;4345571;81;42718;-80
2022/03/10 06:58:45;;;;;;;9.18;3.50;;;;;;;5.37;39.89;100603.10;4357394;81;42706;-78
2022/03/10 07:04:46;;;;;;;7.20;3.47;;;;;;;5.08;40.03;100614.92;4348430;81;42719;-80
2022/03/10 07:10:49;;;;;;;8.80;3.25;;;;;;;5.12;39.87;100618.97;4367853;81;42715;-78
2022/03/10 07:16:51;;;;;;;7.53;3.83;;;;;;;5.79;38.67;100622.83;4356079;81;42729;-77
2022/03/10 07:22:52;;;;;;;7.70;3.15;;;;;;;5.50;38.93;100639.17;4344851;81;42559;-80
2022/03/10 07:28:54;;;;;;;6.85;2.87;;;;;;;6.51;37.19;100628.21;4359112;81;42598;-76
2022/03/10 07:34:55;;;;;;;6.50;3.05;;;;;;;5.41;38.58;100658.31;4439771;79;41875;-74
2022/03/10 07:40:58;;;;;;;7.65;3.37;;;;;;;5.53;38.55;100654.89;4429532;78;42719;-75
2022/03/10 07:46:59;;;;;;;8.65;3.25;;;;;;;6.18;37.71;100651.34;4350641;81;42735;-79
2022/03/10 07:53:00;;;;;;;5.85;3.17;;;;;;;5.88;38.09;100655.72;4335154;81;43429;-84
2022/03/10 07:59:02;;;;;;;9.18;3.77;;;;;;;6.60;37.13;100654.44;4316844;81;43027;-84
2022/03/10 08:05:05;;;;;;;9.88;4.15;;;;;;;6.10;37.17;100670.85;4347993;81;43200;-84
2022/03/10 08:11:06;;;;;;;5.60;2.95;;;;;;;6.86;36.16;100666.84;4337157;81;43426;-83
2022/03/10 08:17:08;;;;;;;5.60;2.55;;;;;;;6.41;36.51;100657.77;4336518;81;43376;-84
2022/03/10 08:23:09;;;;;;;6.62;3.00;;;;;;;6.60;34.98;100663.79;4335102;81;41844;-83
2022/03/10 08:29:11;;;;;;;7.33;3.00;;;;;;;6.32;35.53;100672.59;4350003;81;41832;-84
2022/03/10 08:35:12;;;;;;;9.40;3.52;;;;;;;6.88;34.99;100668.02;4364621;81;42980;-83
2022/03/10 08:41:14;;;;;;;4.90;2.40;;;;;;;7.42;33.57;100676.00;4368056;81;43473;-84
2022/03/10 08:47:16;;;;;;;6.58;3.12;;;;;;;7.19;33.28;100664.15;4344213;82;41881;-85
2022/03/10 08:53:17;;;;;;;6.50;2.70;;;;;;;6.68;34.72;100680.36;4343484;82;43393;-85
2022/03/10 08:59:19;;;;;;;6.85;2.87;;;;;;;7.61;33.29;100683.66;4348066;82;43429;-84
2022/03/10 09:05:20;;;;;;;4.33;2.35;;;;;;;8.75;30.93;100672.26;4334443;82;43436;-85
2022/03/10 09:11:22;;;;;;;4.55;2.65;;;;;;;7.92;31.65;100684.73;4350726;82;43374;-84
2022/03/10 09:17:24;;;;;;;3.65;2.47;;;;;;;7.40;31.19;100688.20;4339102;81;43434;-85
2022/03/10 09:23:26;;;;;;;5.90;2.98;;;;;;;7.18;31.96;100692.39;4345937;82;43385;-85
2022/03/10 09:29:27;;;;;;;5.70;2.52;;;;;;;7.11;32.30;100697.09;4375013;80;43362;-84
2022/03/10 09:35:29;;;;;;;4.85;2.58;;;;;;;6.33;32.97;100703.16;4374415;79;43435;-85
2022/03/10 09:41:31;;;;;;;5.95;2.60;;;;;;;7.28;31.05;100702.94;4440503;79;43413;-85
2022/03/10 09:47:33;;;;;;;5.08;2.52;;;;;;;6.78;31.97;100701.09;4396980;79;43437;-85
2022/03/10 09:53:35;;;;;;;5.12;2.80;;;;;;;7.33;31.37;100697.91;4413847;79;43646;-85
2022/03/10 09:59:57;;;;;;;6.80;3.27;;;;;;;7.04;31.99;100700.09;4435754;79;41882;-84
2022/03/10 10:06:01;;;;;;;5.03;2.37;;;;;;;6.46;32.28;100700.52;4381843;80;43414;-84
2022/03/10 10:12:07;;;;;;;4.58;2.12;;;;;;;7.42;30.71;100697.41;4344641;79;43406;-85
2022/03/10 10:18:15;;;;;;;5.25;2.27;;;;;;;6.42;32.68;100728.05;4434040;79;43452;-84
2022/03/10 10:24:18;;;;;;;6.35;2.87;;;;;;;6.72;32.31;100737.83;4367979;79;43409;-84
2022/03/10 10:30:20;;;;;;;4.45;2.50;;;;;;;8.49;30.98;100732.39;4378022;79;43409;-87
2022/03/10 10:36:26;;;;;;;4.60;2.75;;;;;;;8.13;30.31;100732.38;4380217;80;43412;-86
2022/03/10 10:42:32;;;;;;;4.45;2.30;;;;;;;9.46;28.71;100718.97;4366685;80;43440;-85
2022/03/10 10:48:47;;;;;;;4.37;2.45;;;;;;;9.70;28.78;100728.31;4386745;81;28469;-84
2022/03/10 10:54:49;;;;;;;4.85;2.65;;;;;;;9.52;28.79;100730.83;4404405;80;43456;-84
2022/03/10 11:00:51;;;;;;;3.62;2.08;;;;;;;8.18;29.92;100735.87;4402011;81;43380;-84
2022/03/10 11:06:52;;;;;;;3.72;2.17;;;;;;;8.32;28.30;100740.50;4406936;81;43448;-85
2022/03/10 11:12:54;;;;;;;3.95;2.20;;;;;;;8.94;27.98;100716.53;4401175;80;43420;-87
2022/03/10 11:18:56;;;;;;;3.95;2.00;;;;;;;8.71;27.86;100729.95;4408629;80;28452;-86
2022/03/10 11:25:33;;;;;;;4.53;2.22;;;;;;;8.84;27.80;100732.03;4413574;81;43429;-86
2022/03/10 11:31:35;;;;;;;3.90;2.17;;;;;;;9.33;27.16;100727.63;4403890;80;43665;-86
2022/03/10 11:37:48;;;;;;;3.77;1.87;;;;;;;9.63;27.22;100724.16;4411914;80;43377;-85
2022/03/10 11:44:00;;;;;;;3.85;2.27;;;;;;;8.70;27.45;100732.31;4412848;80;28503;-87
2022/03/10 11:50:26;;;;;;;4.25;1.92;;;;;;;8.95;27.62;100727.59;4407441;81;28532;-87
2022/03/10 11:56:36;;;;;;;;;;;;;;;8.89;27.30;100727.80;4367481;81;28579;-87
2022/03/10 12:02:40;;;;;;;4.72;2.37;;;;;;;9.11;27.66;100717.27;4381916;79;20325;-87
2022/03/10 12:08:47;;;;;;;4.45;2.40;;;;;;;9.39;26.98;100728.75;4413858;81;28522;-88
2022/03/10 12:14:51;;;;;;;5.15;2.45;;;;;;;8.22;28.20;100738.01;4392883;81;43416;-88
2022/03/10 12:20:54;;;;;;;3.52;2.00;;;;;;;9.08;27.69;100725.66;4395613;79;28515;-87
2022/03/10 12:27:01;;;;;;;8.23;2.30;;;;;;;9.40;27.39;100721.02;4445727;78;28525;-87
2022/03/10 12:33:03;;;;;;;5.25;2.45;;;;;;;8.40;27.45;100724.06;4448474;80;28532;-86
2022/03/10 12:39:12;;;;;;;4.45;2.50;;;;;;;9.35;27.00;100716.72;4452540;80;43459;-87
2022/03/10 12:45:19;;;;;;;5.08;2.60;;;;;;;8.81;27.60;100709.59;4386706;80;28565;-87
2022/03/10 12:51:24;;;;;;;4.45;2.10;;;;;;;9.15;26.85;100717.22;4363785;80;43402;-86
2022/03/10 12:57:26;;;;;;;3.37;2.00;;;;;;;9.03;26.56;100708.75;4402714;79;28510;-88
2022/03/10 13:03:27;;;;;;;5.72;2.40;;;;;;;8.70;27.01;100727.77;4408240;79;28582;-88
2022/03/10 13:09:30;;;;;;;6.62;2.15;;;;;;;8.72;27.06;100720.89;4409616;79;43377;-88
2022/03/10 13:15:33;;;;;;;4.37;2.35;;;;;;;9.57;26.41;100709.61;4454120;80;43451;-88
2022/03/10 13:21:36;;;;;;;3.33;1.70;;;;;;;8.97;27.27;100715.34;4464746;79;28501;-88
2022/03/10 13:27:39;;;;;;;3.53;2.30;;;;;;;8.80;27.09;100720.84;4463158;80;28481;-89
2022/03/10 13:33:41;;;;;;;4.53;2.30;;;;;;;8.20;28.20;100716.44;4460708;80;43444;-87
2022/03/10 13:39:46;;;;;;;6.45;2.62;;;;;;;7.66;28.26;100716.61;4438262;80;43419;-87
2022/03/10 13:45:52;;;;;;;6.78;2.58;;;;;;;8.05;28.03;100709.11;4412080;79;28554;-85
2022/03/10 13:51:55;;;;;;;7.45;2.70;;;;;;;8.11;27.97;100720.98;4386264;81;28500;-88
2022/03/10 13:57:58;;;;;;;7.53;2.75;;;;;;;7.84;27.95;100707.52;4390383;80;28577;-86
2022/03/10 14:04:00;;;;;;;5.47;2.67;;;;;;;8.33;27.83;100701.12;4398991;81;28460;-87
2022/03/10 14:10:03;;;;;;;6.15;2.72;;;;;;;8.44;27.39;100706.60;4399908;81;41819;-87
2022/03/10 14:16:07;;;;;;;5.12;2.58;;;;;;;9.18;26.98;100700.75;4398931;80;43409;-87
2022/03/10 14:22:21;;;;;;;4.97;2.45;;;;;;;8.84;27.32;100695.82;4359860;81;43427;-88
2022/03/10 14:28:36;;;;;;;5.80;2.30;;;;;;;9.06;27.26;100704.39;4379329;81;43430;-86
2022/03/10 14:34:37;;;;;;;4.63;2.80;;;;;;;9.48;26.61;100702.16;4375680;81;28530;-87
2022/03/10 14:40:41;;;;;;;6.12;3.08;;;;;;;8.71;27.51;100710.66;4388904;81;28600;-87
2022/03/10 14:46:42;;;;;;;6.78;2.50;;;;;;;9.30;27.07;100706.53;4450489;80;43417;-87
2022/03/10 14:52:44;;;;;;;7.72;2.58;;;;;;;9.34;26.83;100703.80;4449045;80;28528;-88
2022/03/10 14:58:47;;;;;;;6.17;3.10;;;;;;;9.31;27.02;100697.46;4441933;80;43406;-88
2022/03/10 15:04:50;;;;;;;5.67;2.70;;;;;;;8.45;27.78;100697.06;4437481;80;28544;-87
2022/03/10 15:10:51;;;;;;;5.72;2.92;;;;;;;8.68;26.93;100705.66;4450663;80;43374;-87
2022/03/10 15:16:52;;;;;;;6.20;2.72;;;;;;;9.46;26.83;100692.12;4457660;80;43385;-86
2022/03/10 15:22:55;;;;;;;5.33;3.00;;;;;;;9.31;26.95;100704.66;4463204;80;28491;-87
2022/03/10 15:28:56;;;;;;;5.62;2.60;;;;;;;9.11;27.47;100695.80;4424054;80;43366;-88
2022/03/10 15:34:57;;;;;;;7.08;3.05;;;;;;;8.78;27.75;100716.14;4438018;80;41796;-89
2022/03/10 15:40:59;;;;;;;6.17;3.25;;;;;;;8.48;28.23;100710.09;4434778;80;42683;-87
2022/03/10 15:47:02;;;;;;;6.65;2.98;;;;;;;8.49;28.21;100716.31;4460802;80;41863;-87
2022/03/10 15:53:03;;;;;;;6.25;3.50;;;;;;;7.92;28.92;100721.73;4457998;80;41902;-87
2022/03/10 15:59:04;;;;;;;6.20;2.58;;;;;;;8.21;28.78;100720.78;4460010;80;43423;-87
2022/03/10 16:05:10;;;;;;;6.95;2.62;;;;;;;7.96;29.00;100728.89;4434661;79;41817;-88
2022/03/10 16:11:11;;;;;;;4.85;2.83;;;;;;;7.71;28.85;100735.66;4422823;80;28466;-86
2022/03/10 16:17:15;;;;;;;5.08;2.80;;;;;;;7.98;28.81;100737.62;4440033;80;43329;-87
2022/03/10 16:23:23;;;;;;;6.80;2.87;;;;;;;8.44;28.32;100747.66;4465064;80;41801;-85
2022/03/10 16:29:28;;;;;;;7.92;3.20;;;;;;;7.79;29.07;100754.40;4451420;80;42624;-84
2022/03/10 16:35:29;;;;;;;4.28;2.60;;;;;;;8.30;28.56;100761.28;4453458;80;43428;-82
2022/03/10 16:41:35;;;;;;;6.40;3.17;;;;;;;8.14;28.84;100762.18;4454434;80;41856;-85
2022/03/10 16:47:37;;;;;;;6.60;3.37;;;;;;;7.54;29.61;100771.81;4404343;79;42173;-85
2022/03/10 16:53:39;;;;;;;7.58;3.10;;;;;;;8.08;29.19;100767.72;4436996;78;42575;-86
2022/03/10 16:59:41;;;;;;;7.80;3.83;;;;;;;7.63;29.72;100782.52;4376062;80;42736;-84
2022/03/10 17:05:43;;;;;;;7.80;3.95;;;;;;;7.72;29.59;100782.03;4362203;80;43091;-83
2022/03/10 17:11:44;;;;;;;5.92;3.17;;;;;;;7.96;29.55;100783.80;4393718;80;43437;-86
2022/03/10 17:17:46;;;;;;;7.95;3.92;;;;;;;7.48;29.99;100789.05;4386447;79;42703;-84
2022/03/10 17:23:48;;;;;;;7.53;3.92;;;;;;;7.70;29.88;100791.55;4376817;79;42719;-84
2022/03/10 17:29:49;;;;;;;8.88;3.52;;;;;;;7.41;30.24;100795.58;4388852;81;42745;-83
2022/03/10 17:35:50;;;;;;;8.63;3.77;;;;;;;7.71;30.03;100807.13;4386351;80;42747;-82
2022/03/10 17:41:55;;;;;;;8.75;4.10;;;;;;;7.94;29.43;100806.76;4389205;80;42750;-86
2022/03/10 17:47:56;;;;;;;7.37;3.60;;;;;;;7.61;29.84;100817.51;4439615;78;28531;-85
2022/03/10 17:54:03;;;;;;;9.53;3.85;;;;;;;7.47;29.95;100819.50;4309027;80;42716;-85
2022/03/10 18:00:04;;;;;;;9.33;3.85;;;;;;;7.38;30.06;100818.66;4349741;80;42726;-83
2022/03/10 18:06:07;;;;;;;9.18;4.35;;;;;;;7.75;29.76;100818.64;4359228;81;42684;-81
2022/03/10 18:12:11;;;;;;;8.13;3.65;;;;;;;7.66;29.95;100822.36;4355771;80;42717;-82
2022/03/10 18:18:12;;;;;;;9.00;4.10;;;;;;;7.66;29.95;100821.02;4359821;80;42755;-83
2022/03/10 18:24:14;;;;;;;10.08;4.65;;;;;;;7.69;30.03;100831.39;4354049;81;42980;-82
2022/03/10 18:30:18;;;;;;;10.50;4.40;;;;;;;7.62;30.21;100831.22;4333049;80;43228;-77
2022/03/10 18:36:21;;;;;;;11.53;4.60;;;;;;;7.33;30.43;100832.54;4345826;80;43232;-82
2022/03/10 18:42:24;;;;;;;11.55;5.45;;;;;;;7.02;30.88;100836.31;4366514;81;43228;-90
2022/03/10 18:48:28;;;;;;;14.45;6.17;;;;;;;7.02;31.05;100838.50;4368021;81;44002;-88
2022/03/10 18:54:30;;;;;;;13.15;5.83;;;;;;;6.84;31.35;100851.47;4359730;80;43258;-86
2022/03/10 19:00:32;;;;;;;17.17;7.17;;;;;;;6.58;31.83;100854.21;4383134;79;43939;-82
2022/03/10 19:06:34;;;;;;;13.65;6.95;;;;;;;6.64;31.91;100865.61;4391126;79;43878;-83
2022/03/10 19:12:36;;;;;;;16.02;6.80;;;;;;;6.48;32.29;100869.53;4436578;80;43952;-76
2022/03/10 19:18:37;;;;;;;15.83;6.97;;;;;;;5.96;33.18;100869.84;4424188;80;43964;-73
2022/03/10 19:24:39;;;;;;;15.50;7.40;;;;;;;5.83;33.23;100869.75;4426481;80;43944;-74
2022/03/10 19:30:41;;;;;;;17.10;7.67;;;;;;;5.93;33.21;100873.64;4447939;80;44002;-80
2022/03/10 19:36:43;;;;;;;18.57;8.00;;;;;;;5.64;33.95;100869.92;4440509;80;43940;-78
2022/03/10 19:42:50;;;;;;;21.23;9.53;;;;;;;6.14;33.27;100880.50;4451578;80;43925;-76
2022/03/10 19:48:49;;;;;;;19.17;7.95;;;;;;;5.81;33.66;100885.56;4447129;80;43894;-78
2022/03/10 19:54:51;;;;;;;18.95;9.35;;;;;;;5.81;33.66;100885.56;4448773;80;43949;-79
2022/03/10 20:00:53;;;;;;;18.00;8.15;;;;;;;5.95;33.65;100884.18;4453514;80;43976;-77
2022/03/10 20:06:54;;;;;;;21.12;9.08;;;;;;;5.58;34.31;100874.03;4451713;80;43930;-78
2022/03/10 20:12:57;;;;;;;22.52;9.83;;;;;;;5.64;34.26;100876.59;4433830;80;43948;-79
2022/03/10 20:18:59;;;;;;;22.73;9.78;;;;;;;5.54;34.48;100880.17;4450727;80;43882;-81
2022/03/10 20:25:02;;;;;;;19.45;9.05;;;;;;;5.43;34.74;100880.40;4456825;80;43910;-84
2022/03/10 20:31:04;;;;;;;19.67;8.83;;;;;;;5.35;34.76;100881.64;4465882;80;43957;-81
2022/03/10 20:37:06;;;;;;;19.70;9.30;;;;;;;5.33;34.76;100871.63;4367495;80;43943;-80
2022/03/10 20:43:08;;;;;;;20.32;8.98;;;;;;;5.41;34.72;100872.53;4365460;81;44584;-80
2022/03/10 20:49:09;;;;;;;20.77;9.00;;;;;;;5.19;34.90;100883.17;4344202;80;43969;-80
2022/03/10 20:55:12;;;;;;;18.27;7.53;;;;;;;5.16;35.06;100882.14;4358336;80;43916;-77
2022/03/10 21:01:14;;;;;;;20.43;8.63;;;;;;;5.09;35.16;100885.88;4355854;80;43950;-76
2022/03/10 21:07:15;;;;;;;22.48;9.05;;;;;;;5.50;34.56;100884.63;4363777;80;43965;-72
2022/03/10 21:13:17;;;;;;;18.02;7.80;;;;;;;5.18;34.87;100877.49;4356542;81;43945;-72
2022/03/10 21:19:18;;;;;;;18.90;7.65;;;;;;;5.25;34.72;100883.88;4360890;81;43957;-72
2022/03/10 21:25:20;;;;;;;19.90;8.90;;;;;;;4.85;35.36;100886.45;4364482;80;43891;-72
2022/03/10 21:31:21;;;;;;;19.12;8.45;;;;;;;5.11;35.19;100888.41;4353978;81;43965;-74
2022/03/10 21:37:24;;;;;;;20.37;8.18;;;;;;;4.92;35.34;100896.84;4365444;81;43958;-73
2022/03/10 21:43:26;;;;;;;17.60;8.15;;;;;;;4.99;35.21;100883.76;4358134;81;44015;-73
2022/03/10 21:49:27;;;;;;;16.77;7.78;;;;;;;4.69;35.92;100889.75;4421769;78;43969;-74
2022/03/10 21:55:28;;;;;;;21.27;9.23;;;;;;;4.68;35.76;100887.56;4431701;79;43941;-73
2022/03/10 22:01:31;;;;;;;25.92;9.73;;;;;;;4.73;35.88;100889.28;4363316;80;42307;-74
2022/03/10 22:07:34;;;;;;;20.72;8.48;;;;;;;4.61;36.07;100882.47;4370174;81;43980;-73
2022/03/10 22:13:37;;;;;;;22.00;8.83;;;;;;;4.48;36.38;100890.81;4357908;80;43954;-74
2022/03/10 22:19:38;;;;;;;20.72;8.13;;;;;;;4.49;36.44;100890.30;4336909;80;43947;-74
2022/03/10 22:25:39;;;;;;;17.25;8.40;;;;;;;4.30;36.69;100884.90;4361676;81;43956;-75
2022/03/10 22:31:40;;;;;;;21.73;9.13;;;;;;;4.09;37.14;100878.41;4358509;81;43963;-75
2022/03/10 22:37:42;;;;;;;21.57;8.68;;;;;;;4.20;37.00;100874.77;4358513;81;43954;-76
2022/03/10 22:43:44;;;;;;;47.00;18.45;;;;;;;3.95;37.58;100885.52;4339715;81;43766;-73
2022/03/10 22:56:06;;;;;;;26.05;10.40;;;;;;;4.03;37.35;100886.98;4335929;82;42897;-72
2022/03/10 23:02:07;;;;;;;23.57;10.25;;;;;;;3.99;37.44;100888.23;4342695;80;44608;-75
2022/03/10 23:08:08;;;;;;;21.35;9.23;;;;;;;3.99;37.58;100894.42;4365832;80;43949;-74
2022/03/10 23:14:09;;;;;;;20.75;8.68;;;;;;;3.90;37.73;100896.12;4374471;80;43999;-74
2022/03/10 23:20:11;;;;;;;28.57;10.08;;;;;;;3.97;37.55;100894.20;4379066;80;43444;-74
2022/03/10 23:26:13;;;;;;;23.00;9.28;;;;;;;3.83;37.99;100892.81;4381359;80;43947;-74
2022/03/10 23:32:15;;;;;;;22.42;9.15;;;;;;;3.71;37.99;100882.82;4380461;81;43933;-73
2022/03/10 23:38:16;;;;;;;25.72;9.25;;;;;;;3.70;37.79;100888.62;4428142;80;43518;-74
2022/03/10 23:44:17;;;;;;;24.27;9.90;;;;;;;3.51;38.12;100887.28;4420517;80;44417;-74
2022/03/10 23:50:19;;;;;;;25.45;9.53;;;;;;;3.76;37.76;100881.89;4437682;80;42827;-72
2022/03/10 23:56:20;;;;;;;21.33;9.28;;;;;;;3.55;37.50;100890.03;4443145;80;43964;-74
